• Join FlightAware (Why Join?)
  • Login
  • US Flag 
10:27PM EST


 

Airport Tracker/Info


-or-


 

Live Flight TrackerFlight Track Log ✈ LXJ262 ✈ 22-Apr-2013 ✈ KMGW - KATL

Flight Track Log - Related Links

Times and Time Zones

All times are in EDT time to prevent confusion due to time zone crossing. See the LXJ262 flight status page for this flight to view local times or setup timezone preferences in your user account.

Time Position Orientation Groundspeed Altitude Reporting Facility
EDT Latitude Longitude Course Direction KTS MPH feet Rate Location/Type
02:03PM 39.6047 -79.9364 230° Southwest 204 235 4,800  Level Cleveland Center
02:04PM 39.5592 -80.0069 230° Southwest 237 273 7,300 3,120 Climbing Cleveland Center
02:05PM 39.5094 -80.0825 230° Southwest 254 292 11,100 3,900 Climbing Cleveland Center
02:07PM 39.3808 -80.2717 229° Southwest 339 390 19,000 3,840 Climbing Cleveland Center
02:08PM 39.2908 -80.4008 228° Southwest 375 432 23,700 3,540 Climbing Indianapolis Center
02:09PM 39.2156 -80.5031 226° Southwest 395 455 27,100 3,120 Climbing Indianapolis Center
02:10PM 39.1233 -80.5928 217° Southwest 413 475 30,100 3,000 Climbing Indianapolis Center
02:11PM 39.0319 -80.6839 218° Southwest 416 479 33,300 2,220 Climbing Indianapolis Center
02:12PM 38.9397 -80.7739 217° Southwest 416 479 34,700 780 Climbing Indianapolis Center
02:13PM 38.8500 -80.8603 217° Southwest 405 466 35,000 1,380 Climbing Indianapolis Center
02:14PM 38.7633 -80.9439 217° Southwest 392 451 37,600 1,980 Climbing Indianapolis Center
02:15PM 38.6783 -81.0250 217° Southwest 381 438 39,100 1,140 Climbing Indianapolis Center
02:16PM 38.5719 -81.1292 217° Southwest 397 457 40,000 420 Climbing Indianapolis Center
02:17PM 38.4800 -81.2169 217° Southwest 405 466 40,000  Level Indianapolis Center
02:18PM 38.3883 -81.3053 217° Southwest 404 465 40,000  Level Indianapolis Center
02:20PM 38.2997 -81.3892 217° Southwest 399 459 40,000  Level Indianapolis Center
02:21PM 38.2083 -81.4772 217° Southwest 406 467 40,000  Level Indianapolis Center
02:22PM 38.1161 -81.5631 216° Southwest 409 471 40,000  Level Indianapolis Center
02:23PM 38.0247 -81.6494 217° Southwest 408 470 40,000  Level Indianapolis Center
02:24PM 37.9319 -81.7367 217° Southwest 411 473 40,000  Level Indianapolis Center
02:25PM 37.8331 -81.8308 217° Southwest 406 467 40,000  Level Indianapolis Center
02:26PM 37.7417 -81.9161 216° Southwest 407 468 40,000  Level Indianapolis Center
02:27PM 37.6494 -82.0011 216° Southwest 408 470 40,000  Level Indianapolis Center
02:28PM 37.5419 -82.1028 217° Southwest 412 474 40,000  Level Indianapolis Center
02:29PM 37.4381 -82.1661 206° Southwest 415 478 40,000  Level Indianapolis Center
02:30PM 37.3269 -82.2128 198° South 419 482 40,000  Level Indianapolis Center
02:30PM 37.2753 -82.2419 204° Southwest 412 474 40,000  Level Atlanta Center
02:31PM 37.1678 -82.3017 204° Southwest 419 482 40,000  Level Atlanta Center
02:32PM 37.0603 -82.3611 204° Southwest 419 482 40,000  Level Atlanta Center
02:33PM 37.0058 -82.3897 203° Southwest 421 484 40,000  Level Indianapolis Center
02:34PM 36.8986 -82.4494 204° Southwest 418 481 40,000  Level Indianapolis Center
02:34PM 36.8367 -82.4825 203° Southwest 422 486 40,000  Level Atlanta Center
02:35PM 36.7311 -82.5417 204° Southwest 437 503 40,000  Level Atlanta Center
02:36PM 36.6214 -82.6006 203° Southwest 432 497 40,000  Level Atlanta Center
02:37PM 36.5156 -82.6594 204° Southwest 423 487 40,000  Level Atlanta Center
02:38PM 36.4078 -82.7181 204° Southwest 425 489 40,000 -300 Level Atlanta Center
02:39PM 36.3019 -82.7764 204° Southwest 425 489 39,500 -780 Descending Atlanta Center
02:40PM 36.1983 -82.8319 203° Southwest 419 482 38,500 -1,020 Descending Atlanta Center
02:41PM 36.1008 -82.8850 204° Southwest 399 459 37,500 -1,020 Descending Atlanta Center
02:42PM 36.0053 -82.9375 204° Southwest 384 442 36,500 -1,020 Descending Atlanta Center
02:43PM 35.9036 -82.9928 204° Southwest 389 448 35,500 -780 Descending Atlanta Center
02:44PM 35.7997 -83.0478 203° Southwest 401 461 35,000 -300 Descending Atlanta Center
02:45PM 35.6939 -83.1081 205° Southwest 412 474 35,000 -60 Level Atlanta Center
02:46PM 35.5922 -83.1706 207° Southwest 417 480 34,900 -480 Descending Atlanta Center
02:47PM 35.4964 -83.2225 204° Southwest 417 480 34,100 -480 Descending Atlanta Center
02:48PM 35.3947 -83.2822 206° Southwest 417 480 34,000 -60 Descending Atlanta Center
02:49PM 35.2864 -83.3467 206° Southwest 427 491 34,000 -120 Level Atlanta Center
02:50PM 35.1806 -83.4086 206° Southwest 422 486 33,800 -1,680 Descending Atlanta Center
02:51PM 35.0722 -83.4653 203° Southwest 422 486 30,700 -3,300 Descending Atlanta Center
02:52PM 34.9661 -83.5319 207° Southwest 422 486 27,200 -3,480 Descending Atlanta Center
02:53PM 34.8475 -83.5958 204° Southwest 422 486 23,800 -2,820 Descending Atlanta Center
02:55PM 34.6350 -83.7181 205° Southwest 418 481 18,800 -2,160 Descending Atlanta Center
02:56PM 34.5411 -83.7689 204° Southwest 418 481 17,400 -1,500 Descending Atlanta Center
02:57PM 34.4389 -83.8272 205° Southwest 418 481 15,900 -1,380 Descending Atlanta Center
02:58PM 34.3411 -83.8828 205° Southwest 402 463 14,700 -1,200 Descending Atlanta Center
02:59PM 34.2431 -83.9358 204° Southwest 397 457 13,500 -900 Descending Atlanta Center
03:00PM 34.1492 -83.9986 209° Southwest 385 443 13,000 -420 Descending Atlanta Center
03:01PM 34.1000 -84.0333 210° Southwest 373 429 13,000 -540 Level Atlanta TRACON
03:02PM 34.0333 -84.1000 220° Southwest 302 348 12,300 -540 Descending Atlanta TRACON
03:03PM 33.9667 -84.1500 212° Southwest 271 312 12,000 -180 Descending Atlanta TRACON
03:04PM 33.9000 -84.2000 212° Southwest 279 321 12,000  Level Atlanta TRACON
03:05PM 33.8500 -84.2500 220° Southwest 272 313 12,000  Level Atlanta TRACON
03:06PM 33.7833 -84.3000 212° Southwest 253 291 12,000 -1,020 Level Atlanta TRACON
03:07PM 33.7333 -84.3500 220° Southwest 255 293 10,000 -2,040 Descending Atlanta TRACON
03:08PM 33.7333 -84.4333 270° West 267 307 8,000 -1,500 Descending Atlanta TRACON
03:09PM 33.7333 -84.5167 270° West 247 284 7,000 -1,200 Descending Atlanta TRACON
03:10PM 33.7333 -84.6000 270° West 235 270 5,600 -960 Descending Atlanta TRACON
03:11PM 33.6833 -84.6167 196° South 188 216 5,100 -840 Descending Atlanta TRACON
03:12PM 33.6500 -84.5667 129° Southeast 178 205 4,000 -1,260 Descending Atlanta TRACON
03:13PM 33.6500 -84.5000 90° East 165 190 2,600 -1,260 Descending Atlanta TRACON
03:14PM 33.6500 -84.4667 90° East 141 162 1,500 -1,140 Descending Atlanta TRACON
03:16PM 33.6367 -84.4279 103° East  Level Estimated
03:23PM 33.6367 -84.4279 103° East  Level Estimated